Hamilton (General Hospital) Heliport

CPK3 · 安大略, 加拿大

罗盘
风向 的 风向 180° 直升机
风: 7 kt, 3 beaufort
0 ft 1.000 2.000 3.000 4.000 5.000
Cloud Cloud Cloud Cloud Cloud Cloud Cloud Cloud
OVC 3.600
METAR CYHM 020700Z 18007KT 15SM OVC036 05/00 A3018 RMK SC8 SLP229

METAR Hamilton (General Hospital) Heliport - CPK3

Hamilton (General Hospital) Heliport是,加拿大中的直升机场。 该机场位于纬度43,26191和经度-79,85473。 该机场的伪ICAO代码为CPK3。 机场在Toronto FIR中。

该航空气象观测是针对John C. Munro Hamilton International Airport在2024年3月2日 02:00, 当地时间进行的。

机场观察

风向为180°,速度为7 kt。

可见度为15 mi。

有乌云密布在3.600 ft的高度。 破损或更高的上限为3.600 ft。

温度为5 °C,阵风为1 °C。 海平面上的气压为30,18 inHg (QNH)。

白天

今天,太阳从06:52升起,在18:10降落。 这适用于Hamilton (General Hospital) Heliport,世界夏令时可能有所不同。 当地时间与世界标准时间之间的时差为-5 小时。 当前,没有夏令时有效。

公司介绍

我们没有关于这个机场的公司信息。

体会

到Vliegles.nl去找飞行课程,跳伞和其他飞行体验。 浏览页面,了解Hamilton (General Hospital) Heliport附近所有可用的活动。 你也可以使用搜索功能来寻找你所在地附近的特定飞行课程、跳伞或其他飞行体验。

乌云

3.600 ft OVC 乌云密布

温度 & 天气

温度 5 °C
露点 0 °C
相对湿度 70%
风寒 1 °C
Kp-index 1 (0-9)

评论

SLP229海平面压力为30,21 inHg (30,21 inHg)
SC8

白天

日出
06:52 (3:46)
中午
12:31
日落
18:10

小工具

你想在你的网站上有一个关于Hamilton (General Hospital) Heliport的当前航空天气(METAR)的小部件吗?

显示HTML代码
?>